Time;durP1;ratioP1;P1;durP2;ratioP2;P2;SDS_P1;SDS_P2;PMS_P1;PMS_P2;Temp;Humidity;BMP_temperature;BMP_pressure;BME280_temperature;BME280_humidity;BME280_pressure;Samples;Min_cycle;Max_cycle;Signal;HPM_P1;HPM_P2
2021/10/17 00:00:59;;;;;;;4.15;2.90;;;;;;;;;;5149306;27;20029;-73
2021/10/17 00:03:25;;;;;;;9.73;3.00;;;;;;;;;;5148903;27;20023;-73
2021/10/17 00:05:52;;;;;;;6.40;2.67;;;;;;;;;;5148921;27;20529;-73
2021/10/17 00:08:18;;;;;;;4.63;2.60;;;;;;;;;;5147443;27;20527;-73
2021/10/17 00:10:44;;;;;;;5.60;2.83;;;;;;;;;;5149490;27;20048;-73
2021/10/17 00:13:10;;;;;;;5.22;2.53;;;;;;;;;;5149085;27;20036;-73
2021/10/17 00:15:37;;;;;;;8.57;3.15;;;;;;;;;;5148820;27;20035;-73
2021/10/17 00:18:04;;;;;;;5.55;3.08;;;;;;;;;;5148904;27;20026;-73
2021/10/17 00:20:31;;;;;;;9.90;3.20;;;;;;;;;;5147835;27;20022;-73
2021/10/17 00:22:57;;;;;;;9.13;3.25;;;;;;;;;;5148532;27;20015;-73
2021/10/17 00:25:24;;;;;;;7.13;3.05;;;;;;;;;;5148335;27;20019;-73
2021/10/17 00:27:50;;;;;;;6.80;3.42;;;;;;;;;;5148917;27;20017;-73
2021/10/17 00:30:16;;;;;;;5.72;3.30;;;;;;;;;;5149064;27;20023;-73
2021/10/17 00:32:42;;;;;;;3.67;3.20;;;;;;;;;;5147317;27;20102;-73
2021/10/17 00:35:10;;;;;;;5.28;3.20;;;;;;;;;;5148526;27;20039;-73
2021/10/17 00:37:36;;;;;;;5.70;3.83;;;;;;;;;;5148839;27;20383;-73
2021/10/17 00:40:03;;;;;;;5.60;3.22;;;;;;;;;;5148717;27;20026;-73
2021/10/17 00:42:29;;;;;;;4.93;3.22;;;;;;;;;;5146910;27;20387;-73
2021/10/17 00:45:01;;;;;;;6.30;3.80;;;;;;;;;;5148654;27;20286;-73
2021/10/17 00:47:27;;;;;;;6.35;3.65;;;;;;;;;;5148627;27;20455;-73
2021/10/17 00:49:54;;;;;;;7.72;3.58;;;;;;;;;;5148827;27;20082;-73
2021/10/17 00:52:21;;;;;;;7.55;3.67;;;;;;;;;;5146692;27;20486;-73
2021/10/17 00:54:47;;;;;;;5.57;3.33;;;;;;;;;;5148682;27;20035;-73
2021/10/17 00:57:14;;;;;;;5.28;3.35;;;;;;;;;;5148555;27;20019;-73
2021/10/17 00:59:40;;;;;;;9.05;4.18;;;;;;;;;;5148027;27;20146;-73
2021/10/17 01:02:07;;;;;;;6.72;3.50;;;;;;;;;;5146826;27;20022;-73
2021/10/17 01:04:33;;;;;;;4.78;3.08;;;;;;;;;;5148146;27;20023;-73
2021/10/17 01:06:59;;;;;;;8.20;4.13;;;;;;;;;;5148184;27;20022;-73
2021/10/17 01:09:25;;;;;;;8.85;3.80;;;;;;;;;;5148631;27;20031;-73
2021/10/17 01:11:52;;;;;;;7.22;3.58;;;;;;;;;;5146675;27;20209;-73
2021/10/17 01:14:18;;;;;;;9.05;4.07;;;;;;;;;;5148136;27;20071;-73
2021/10/17 01:16:45;;;;;;;6.40;3.70;;;;;;;;;;5148085;27;20508;-73
2021/10/17 01:19:12;;;;;;;5.43;3.58;;;;;;;;;;5148153;27;20031;-73
2021/10/17 01:21:39;;;;;;;9.13;4.18;;;;;;;;;;5147957;27;20109;-73
2021/10/17 01:24:06;;;;;;;6.93;3.78;;;;;;;;;;5146507;27;20539;-73
2021/10/17 01:26:32;;;;;;;6.10;3.97;;;;;;;;;;5148311;27;20045;-73
2021/10/17 01:28:58;;;;;;;5.90;3.70;;;;;;;;;;5148079;27;20023;-73
2021/10/17 01:31:34;;;;;;;11.95;4.32;;;;;;;;;;5146182;27;20019;-73
2021/10/17 01:34:00;;;;;;;8.07;4.35;;;;;;;;;;5147671;27;20114;-73
2021/10/17 01:36:26;;;;;;;7.13;3.75;;;;;;;;;;5148327;27;20019;-73
2021/10/17 01:38:53;;;;;;;10.25;3.90;;;;;;;;;;5152279;27;20022;-73
2021/10/17 01:41:19;;;;;;;13.68;4.53;;;;;;;;;;5150490;27;20027;-73
2021/10/17 01:43:45;;;;;;;6.13;4.00;;;;;;;;;;5151633;27;20485;-73
2021/10/17 01:46:11;;;;;;;5.65;4.03;;;;;;;;;;5151872;27;20378;-73
2021/10/17 01:48:37;;;;;;;8.43;4.10;;;;;;;;;;5151994;27;20030;-73
2021/10/17 01:51:03;;;;;;;4.95;3.67;;;;;;;;;;5149885;27;20023;-73
2021/10/17 01:53:30;;;;;;;6.28;3.80;;;;;;;;;;5151858;27;20025;-73
2021/10/17 01:55:57;;;;;;;5.32;3.55;;;;;;;;;;5152072;27;20019;-73
2021/10/17 01:58:23;;;;;;;9.57;3.63;;;;;;;;;;5151642;27;20047;-73
2021/10/17 02:00:49;;;;;;;5.43;3.60;;;;;;;;;;5151714;27;20030;-73
2021/10/17 02:03:15;;;;;;;5.07;3.60;;;;;;;;;;5150070;27;20131;-73
2021/10/17 02:05:42;;;;;;;8.10;4.18;;;;;;;;;;5151593;27;20079;-73
2021/10/17 02:08:08;;;;;;;5.38;3.50;;;;;;;;;;5151527;27;20023;-73
2021/10/17 02:10:34;;;;;;;10.32;3.85;;;;;;;;;;5149865;27;20030;-73
2021/10/17 02:13:00;;;;;;;7.15;3.50;;;;;;;;;;5151388;27;20030;-73
2021/10/17 02:15:26;;;;;;;6.55;3.42;;;;;;;;;;5151115;27;20136;-73
2021/10/17 02:17:52;;;;;;;4.85;3.50;;;;;;;;;;5151483;27;20026;-73
2021/10/17 02:20:19;;;;;;;7.18;3.10;;;;;;;;;;5151425;27;20023;-73
2021/10/17 02:22:45;;;;;;;4.88;3.10;;;;;;;;;;5149743;27;20023;-73
2021/10/17 02:25:11;;;;;;;5.20;2.80;;;;;;;;;;5132620;27;20026;-73
2021/10/17 02:27:38;;;;;;;4.57;2.75;;;;;;;;;;5130347;27;20026;-73
2021/10/17 02:30:05;;;;;;;4.95;2.80;;;;;;;;;;5130770;27;20023;-73
2021/10/17 02:32:34;;;;;;;6.43;2.88;;;;;;;;;;5130132;27;20462;-73
2021/10/17 02:35:00;;;;;;;4.82;2.63;;;;;;;;;;5128863;27;20051;-73
2021/10/17 02:37:26;;;;;;;3.13;2.10;;;;;;;;;;5130338;27;20025;-73
2021/10/17 02:39:53;;;;;;;3.50;2.10;;;;;;;;;;5130291;27;20023;-73
2021/10/17 02:42:19;;;;;;;2.92;2.00;;;;;;;;;;5130015;27;20027;-73
2021/10/17 02:44:45;;;;;;;3.92;1.95;;;;;;;;;;5128657;27;20031;-73
2021/10/17 02:47:11;;;;;;;4.80;1.90;;;;;;;;;;5129696;27;20102;-73
2021/10/17 02:49:37;;;;;;;4.15;2.63;;;;;;;;;;5129684;27;20037;-73
2021/10/17 02:52:03;;;;;;;4.75;2.40;;;;;;;;;;5128289;27;20463;-73
2021/10/17 02:54:30;;;;;;;5.75;3.10;;;;;;;;;;5129584;27;20039;-73
2021/10/17 02:56:56;;;;;;;7.47;3.42;;;;;;;;;;5129774;27;20210;-73
2021/10/17 02:59:22;;;;;;;5.18;3.15;;;;;;;;;;5128530;27;20055;-73
2021/10/17 03:01:48;;;;;;;6.57;3.15;;;;;;;;;;5129257;27;20034;-73
2021/10/17 03:04:14;;;;;;;4.88;2.90;;;;;;;;;;5127355;27;20037;-73
2021/10/17 03:06:40;;;;;;;5.10;2.90;;;;;;;;;;5126685;27;20037;-73
2021/10/17 03:09:07;;;;;;;6.53;2.70;;;;;;;;;;5125545;27;20035;-73
2021/10/17 03:11:33;;;;;;;6.57;2.85;;;;;;;;;;5126889;27;20027;-73
2021/10/17 03:14:00;;;;;;;3.60;2.72;;;;;;;;;;5126989;27;20390;-73
2021/10/17 03:16:26;;;;;;;4.75;2.90;;;;;;;;;;5125664;27;20369;-73
2021/10/17 03:18:52;;;;;;;5.18;3.20;;;;;;;;;;5126577;27;20033;-73
2021/10/17 03:21:18;;;;;;;6.38;3.17;;;;;;;;;;5126571;27;20023;-73
2021/10/17 03:23:45;;;;;;;2.78;2.40;;;;;;;;;;5126638;27;20384;-73
2021/10/17 03:26:11;;;;;;;6.28;2.90;;;;;;;;;;5126772;27;20023;-73
2021/10/17 03:28:37;;;;;;;4.75;3.22;;;;;;;;;;5127067;27;20026;-73
2021/10/17 03:31:06;;;;;;;5.60;3.22;;;;;;;;;;5125412;27;20110;-73
2021/10/17 03:33:32;;;;;;;5.07;2.90;;;;;;;;;;5126790;27;20272;-73
2021/10/17 03:35:59;;;;;;;4.53;2.53;;;;;;;;;;5126627;27;20112;-73
2021/10/17 03:38:25;;;;;;;5.43;2.97;;;;;;;;;;5126127;27;20106;-72
2021/10/17 03:40:51;;;;;;;4.07;2.88;;;;;;;;;;5126412;27;20494;-73
2021/10/17 03:43:17;;;;;;;5.13;2.90;;;;;;;;;;5126925;27;20027;-73
2021/10/17 03:45:43;;;;;;;5.13;2.97;;;;;;;;;;5125130;27;20031;-73
2021/10/17 03:48:09;;;;;;;6.15;2.70;;;;;;;;;;5126181;27;20153;-73
2021/10/17 03:50:36;;;;;;;7.18;2.92;;;;;;;;;;5126482;27;20036;-73
2021/10/17 03:53:02;;;;;;;5.30;3.28;;;;;;;;;;5126378;27;20327;-73
2021/10/17 03:55:28;;;;;;;5.00;2.53;;;;;;;;;;5124399;27;20038;-73
2021/10/17 03:57:55;;;;;;;5.25;3.15;;;;;;;;;;5125911;27;20019;-73
2021/10/17 04:00:22;;;;;;;3.30;2.70;;;;;;;;;;5125334;27;20027;-73
2021/10/17 04:02:48;;;;;;;5.07;2.95;;;;;;;;;;5126541;27;20027;-73
2021/10/17 04:05:16;;;;;;;8.50;3.10;;;;;;;;;;5124955;27;20069;-73
2021/10/17 04:07:42;;;;;;;4.80;2.90;;;;;;;;;;5125855;27;20590;-73
2021/10/17 04:10:08;;;;;;;5.00;2.75;;;;;;;;;;5125546;27;20562;-73
2021/10/17 04:12:35;;;;;;;3.13;2.60;;;;;;;;;;5125729;27;20027;-73
2021/10/17 04:15:01;;;;;;;5.55;2.92;;;;;;;;;;5126059;27;20066;-73
2021/10/17 04:17:27;;;;;;;4.07;2.70;;;;;;;;;;5124231;27;20446;-73
2021/10/17 04:19:53;;;;;;;4.43;2.72;;;;;;;;;;5124370;27;20302;-73
2021/10/17 04:22:20;;;;;;;3.80;2.60;;;;;;;;;;5125294;27;20015;-73
2021/10/17 04:24:46;;;;;;;6.30;2.70;;;;;;;;;;5125630;27;20068;-73
2021/10/17 04:27:13;;;;;;;4.70;2.72;;;;;;;;;;5124221;27;20023;-73
2021/10/17 04:29:39;;;;;;;4.50;2.95;;;;;;;;;;5125239;27;20503;-73
2021/10/17 04:32:06;;;;;;;3.40;2.88;;;;;;;;;;5125648;27;20108;-73
2021/10/17 04:34:32;;;;;;;7.63;2.90;;;;;;;;;;5123916;27;20572;-73
2021/10/17 04:36:59;;;;;;;4.43;3.17;;;;;;;;;;5125145;27;20027;-73
2021/10/17 04:39:25;;;;;;;3.78;2.88;;;;;;;;;;5125274;27;20030;-72
2021/10/17 04:41:51;;;;;;;7.95;3.55;;;;;;;;;;5125527;27;20080;-73
2021/10/17 04:44:17;;;;;;;7.10;3.55;;;;;;;;;;5125367;27;20024;-73
2021/10/17 04:46:43;;;;;;;5.25;3.38;;;;;;;;;;5125186;27;20467;-73
2021/10/17 04:49:10;;;;;;;5.00;3.25;;;;;;;;;;5123309;27;20453;-73
2021/10/17 04:51:36;;;;;;;6.30;2.60;;;;;;;;;;5124933;27;20094;-73
2021/10/17 04:54:02;;;;;;;5.68;2.83;;;;;;;;;;5124055;27;20369;-73
2021/10/17 04:56:28;;;;;;;4.93;2.47;;;;;;;;;;5125554;27;20019;-73
2021/10/17 04:58:55;;;;;;;5.00;2.90;;;;;;;;;;5123577;27;20051;-73
2021/10/17 05:01:21;;;;;;;4.60;3.20;;;;;;;;;;5125114;28;20103;-73
2021/10/17 05:03:47;;;;;;;4.18;3.42;;;;;;;;;;5125424;28;20029;-73
2021/10/17 05:06:13;;;;;;;5.10;3.30;;;;;;;;;;5125069;28;20027;-73
2021/10/17 05:08:39;;;;;;;7.25;3.50;;;;;;;;;;5125135;28;20098;-73
2021/10/17 05:11:06;;;;;;;4.50;3.40;;;;;;;;;;5126365;27;20026;-73
2021/10/17 05:13:32;;;;;;;4.57;3.35;;;;;;;;;;5127754;27;20091;-73
2021/10/17 05:15:58;;;;;;;5.28;3.33;;;;;;;;;;5129034;27;20019;-73
2021/10/17 05:18:24;;;;;;;8.13;3.38;;;;;;;;;;5129074;27;20376;-73
2021/10/17 05:20:50;;;;;;;4.05;2.88;;;;;;;;;;5129380;27;20019;-73
2021/10/17 05:23:16;;;;;;;5.22;3.33;;;;;;;;;;5125673;27;20474;-73
2021/10/17 05:25:44;;;;;;;5.53;3.20;;;;;;;;;;5129193;27;20030;-73
2021/10/17 05:28:10;;;;;;;5.43;3.00;;;;;;;;;;5129048;27;20054;-73
2021/10/17 05:30:37;;;;;;;5.65;3.88;;;;;;;;;;5129291;27;20023;-73
2021/10/17 05:33:03;;;;;;;7.50;3.30;;;;;;;;;;5128564;27;20023;-73
2021/10/17 05:35:29;;;;;;;7.10;3.15;;;;;;;;;;5128663;27;20276;-73
2021/10/17 05:37:55;;;;;;;4.97;3.20;;;;;;;;;;5127175;27;20114;-73
2021/10/17 05:40:22;;;;;;;6.47;3.60;;;;;;;;;;5128533;27;20501;-73
2021/10/17 05:42:48;;;;;;;8.88;3.70;;;;;;;;;;5128961;27;20110;-73
2021/10/17 05:45:14;;;;;;;12.98;3.60;;;;;;;;;;5128492;27;20023;-73
2021/10/17 05:47:40;;;;;;;5.85;3.15;;;;;;;;;;5128455;27;20042;-73
2021/10/17 05:50:07;;;;;;;4.97;3.75;;;;;;;;;;5128216;27;20027;-73
2021/10/17 05:52:34;;;;;;;4.78;3.53;;;;;;;;;;5126577;27;20114;-73
2021/10/17 05:55:00;;;;;;;5.78;3.67;;;;;;;;;;5128587;27;20039;-73
2021/10/17 05:57:26;;;;;;;6.57;4.38;;;;;;;;;;5128124;27;20027;-73
2021/10/17 05:59:53;;;;;;;7.05;3.38;;;;;;;;;;5127890;27;20436;-73
2021/10/17 06:02:19;;;;;;;7.35;3.88;;;;;;;;;;5128316;27;20015;-73
2021/10/17 06:04:45;;;;;;;4.15;3.50;;;;;;;;;;5127537;27;20120;-73
2021/10/17 06:07:12;;;;;;;7.30;3.80;;;;;;;;;;5128117;27;20020;-73
2021/10/17 06:09:39;;;;;;;5.40;3.42;;;;;;;;;;5127962;27;20031;-73
2021/10/17 06:12:06;;;;;;;6.13;3.80;;;;;;;;;;5128100;27;20038;-73
2021/10/17 06:14:32;;;;;;;5.40;3.63;;;;;;;;;;5126424;27;20480;-73
2021/10/17 06:16:59;;;;;;;7.53;3.60;;;;;;;;;;5127902;27;20348;-73
2021/10/17 06:19:25;;;;;;;4.47;3.60;;;;;;;;;;5127533;27;20367;-73
2021/10/17 06:21:52;;;;;;;7.97;3.50;;;;;;;;;;5126141;27;20023;-73
2021/10/17 06:24:18;;;;;;;8.35;3.72;;;;;;;;;;5127312;27;20386;-73
2021/10/17 06:26:45;;;;;;;8.43;4.38;;;;;;;;;;5128104;27;20087;-73
2021/10/17 06:29:11;;;;;;;10.68;3.67;;;;;;;;;;5127805;27;20073;-73
2021/10/17 06:31:38;;;;;;;8.45;4.18;;;;;;;;;;5126293;27;20518;-73
2021/10/17 06:34:04;;;;;;;5.93;3.45;;;;;;;;;;5127799;27;20047;-73
2021/10/17 06:36:31;;;;;;;7.15;3.72;;;;;;;;;;5126198;27;20379;-73
2021/10/17 06:38:57;;;;;;;5.15;3.35;;;;;;;;;;5127611;27;20406;-73
2021/10/17 06:41:24;;;;;;;6.30;3.58;;;;;;;;;;5126961;27;20015;-73
2021/10/17 06:43:50;;;;;;;5.45;2.88;;;;;;;;;;5127417;27;20019;-73
2021/10/17 06:46:16;;;;;;;5.53;3.33;;;;;;;;;;5127691;27;20027;-73
2021/10/17 06:48:42;;;;;;;5.32;3.17;;;;;;;;;;5125899;27;20431;-73
2021/10/17 06:51:09;;;;;;;3.85;2.78;;;;;;;;;;5127610;27;20068;-73
2021/10/17 06:53:35;;;;;;;4.30;2.40;;;;;;;;;;5127131;27;20021;-73
2021/10/17 06:56:01;;;;;;;4.18;2.60;;;;;;;;;;5127769;27;20027;-73
2021/10/17 06:58:27;;;;;;;3.83;2.28;;;;;;;;;;5126935;27;20066;-73
2021/10/17 07:00:53;;;;;;;3.28;2.47;;;;;;;;;;5127041;27;20266;-73
2021/10/17 07:03:19;;;;;;;4.88;2.40;;;;;;;;;;5125268;27;20102;-74
2021/10/17 07:05:45;;;;;;;3.45;2.67;;;;;;;;;;5126843;27;20033;-73
2021/10/17 07:08:12;;;;;;;2.65;2.20;;;;;;;;;;5126785;27;20027;-73
2021/10/17 07:10:38;;;;;;;3.05;2.20;;;;;;;;;;5126940;27;20019;-73
2021/10/17 07:13:04;;;;;;;4.57;2.20;;;;;;;;;;5126737;27;20087;-73
2021/10/17 07:15:30;;;;;;;4.18;2.20;;;;;;;;;;5127022;27;20080;-73
2021/10/17 07:17:56;;;;;;;3.58;2.30;;;;;;;;;;5125121;27;20035;-73
2021/10/17 07:20:22;;;;;;;4.50;2.47;;;;;;;;;;5126796;27;20106;-73
2021/10/17 07:22:49;;;;;;;4.80;2.58;;;;;;;;;;5126479;27;20021;-73
2021/10/17 07:25:16;;;;;;;3.90;2.80;;;;;;;;;;5125079;27;20110;-73
2021/10/17 07:27:42;;;;;;;3.65;2.45;;;;;;;;;;5126425;27;20027;-73
2021/10/17 07:30:09;;;;;;;3.33;2.40;;;;;;;;;;5126795;27;20114;-73
2021/10/17 07:32:35;;;;;;;6.20;2.28;;;;;;;;;;5126700;27;20026;-73
2021/10/17 07:35:01;;;;;;;7.68;3.30;;;;;;;;;;5124313;27;20027;-73
2021/10/17 07:37:27;;;;;;;3.17;2.08;;;;;;;;;;5133225;27;20019;-73
2021/10/17 07:39:53;;;;;;;6.70;3.05;;;;;;;;;;5146017;27;20086;-73
2021/10/17 07:42:20;;;;;;;2.65;2.30;;;;;;;;;;5147401;27;20019;-73
2021/10/17 07:44:46;;;;;;;2.97;1.98;;;;;;;;;;5146672;27;20031;-73
2021/10/17 07:47:12;;;;;;;3.72;2.35;;;;;;;;;;5137032;27;20030;-73
2021/10/17 07:49:38;;;;;;;4.90;3.05;;;;;;;;;;5125405;27;20530;-73
2021/10/17 07:52:04;;;;;;;4.45;2.50;;;;;;;;;;5144705;27;20018;-73
2021/10/17 07:54:33;;;;;;;3.45;2.65;;;;;;;;;;5145845;27;20406;-73
2021/10/17 07:56:59;;;;;;;3.42;2.28;;;;;;;;;;5145342;27;20363;-73
2021/10/17 07:59:25;;;;;;;6.45;2.55;;;;;;;;;;5140041;27;20046;-73
2021/10/17 08:01:51;;;;;;;3.50;2.50;;;;;;;;;;5146040;27;20030;-73
2021/10/17 08:04:17;;;;;;;6.82;2.58;;;;;;;;;;5145870;27;20022;-73
2021/10/17 08:06:43;;;;;;;3.33;2.75;;;;;;;;;;5146310;27;20033;-73
2021/10/17 08:09:09;;;;;;;6.68;3.17;;;;;;;;;;5136391;27;20023;-73
2021/10/17 08:11:36;;;;;;;6.93;3.22;;;;;;;;;;5146015;27;20479;-73
2021/10/17 08:14:02;;;;;;;6.15;3.05;;;;;;;;;;5144147;27;20031;-73
2021/10/17 08:16:28;;;;;;;5.00;3.33;;;;;;;;;;5145904;27;20451;-73
2021/10/17 08:18:54;;;;;;;5.60;3.92;;;;;;;;;;5129401;27;20160;-73
2021/10/17 08:21:20;;;;;;;4.95;2.70;;;;;;;;;;5124721;27;20019;-73
2021/10/17 08:23:46;;;;;;;4.10;2.75;;;;;;;;;;5135771;27;20071;-73
2021/10/17 08:26:13;;;;;;;3.70;2.85;;;;;;;;;;5145852;27;20022;-73
2021/10/17 08:28:40;;;;;;;5.10;3.40;;;;;;;;;;5145285;27;20011;-73
2021/10/17 08:31:06;;;;;;;4.93;3.20;;;;;;;;;;5145038;27;20036;-73
2021/10/17 08:33:32;;;;;;;3.47;3.00;;;;;;;;;;5145242;27;20114;-74
2021/10/17 08:35:58;;;;;;;7.53;3.47;;;;;;;;;;5142712;27;20019;-73
2021/10/17 08:38:24;;;;;;;4.15;3.50;;;;;;;;;;5145487;27;20029;-73
2021/10/17 08:40:51;;;;;;;9.25;3.40;;;;;;;;;;5145107;27;20221;-73
2021/10/17 08:43:17;;;;;;;5.03;3.53;;;;;;;;;;5144985;27;20034;-73
2021/10/17 08:45:46;;;;;;;4.55;2.88;;;;;;;;;;5145118;27;20027;-73
2021/10/17 08:48:13;;;;;;;3.72;2.92;;;;;;;;;;5143556;27;20026;-73
2021/10/17 08:50:39;;;;;;;7.03;3.20;;;;;;;;;;5145122;27;20030;-73
2021/10/17 08:53:05;;;;;;;5.63;3.42;;;;;;;;;;5144720;27;20034;-73
2021/10/17 08:55:32;;;;;;;3.80;3.05;;;;;;;;;;5145082;27;20504;-73
2021/10/17 08:57:58;;;;;;;4.13;2.80;;;;;;;;;;5145925;27;20076;-74
2021/10/17 09:00:25;;;;;;;3.83;3.10;;;;;;;;;;5144142;27;20401;-73
2021/10/17 09:02:52;;;;;;;5.65;3.80;;;;;;;;;;5145350;27;20280;-73
2021/10/17 09:05:18;;;;;;;6.68;2.88;;;;;;;;;;5145317;27;20071;-73
2021/10/17 09:07:53;;;;;;;6.85;3.33;;;;;;;;;;5146001;27;20022;-73
2021/10/17 09:10:19;;;;;;;4.07;2.88;;;;;;;;;;5145952;27;20431;-73
2021/10/17 09:12:46;;;;;;;3.33;2.85;;;;;;;;;;5144381;27;20022;-73
2021/10/17 09:15:18;;;;;;;4.35;3.33;;;;;;;;;;5145535;27;20031;-73
2021/10/17 09:18:03;;;;;;;3.47;2.80;;;;;;;;;;5145795;27;20050;-73
2021/10/17 09:20:30;;;;;;;3.88;2.70;;;;;;;;;;5145498;27;20032;-73
2021/10/17 09:23:00;;;;;;;4.88;2.90;;;;;;;;;;5145445;27;20049;-73
2021/10/17 09:25:33;;;;;;;3.97;2.67;;;;;;;;;;5143956;27;20424;-73
2021/10/17 09:27:59;;;;;;;4.28;2.90;;;;;;;;;;5145372;27;20023;-73
2021/10/17 09:30:26;;;;;;;6.15;2.90;;;;;;;;;;5145595;27;20027;-73
2021/10/17 09:32:52;;;;;;;3.05;2.55;;;;;;;;;;5144395;27;20407;-73
2021/10/17 09:35:19;;;;;;;4.18;2.85;;;;;;;;;;5144482;27;20035;-72
2021/10/17 09:37:46;;;;;;;6.20;2.50;;;;;;;;;;5144410;27;20023;-73
2021/10/17 09:40:24;;;;;;;4.40;2.88;;;;;;;;;;5144168;27;20201;-73
2021/10/17 09:43:11;;;;;;;3.72;2.90;;;;;;;;;;5143074;27;20408;-73
2021/10/17 09:45:37;;;;;;;4.95;2.78;;;;;;;;;;5145001;27;20568;-73
2021/10/17 09:48:04;;;;;;;3.85;2.90;;;;;;;;;;5144949;27;20261;-73
2021/10/17 09:50:30;;;;;;;4.03;2.70;;;;;;;;;;5144874;27;20014;-73
2021/10/17 09:52:56;;;;;;;3.63;2.53;;;;;;;;;;5142998;27;20091;-73
2021/10/17 09:55:23;;;;;;;3.50;2.55;;;;;;;;;;5144740;27;20192;-73
2021/10/17 09:57:50;;;;;;;5.90;3.30;;;;;;;;;;5145334;27;20097;-73
2021/10/17 10:00:16;;;;;;;4.68;3.13;;;;;;;;;;5147058;27;20047;-73
2021/10/17 10:02:46;;;;;;;3.38;2.85;;;;;;;;;;5145138;27;20022;-73
2021/10/17 10:05:14;;;;;;;3.53;2.83;;;;;;;;;;5131820;27;20023;-73
2021/10/17 10:07:41;;;;;;;3.90;2.85;;;;;;;;;;5142252;27;20060;-73
2021/10/17 10:10:08;;;;;;;4.22;3.00;;;;;;;;;;5134246;27;20023;-73
2021/10/17 10:12:34;;;;;;;3.60;2.88;;;;;;;;;;5126192;27;20027;-73
2021/10/17 10:15:01;;;;;;;4.47;2.95;;;;;;;;;;5126416;27;20035;-73
2021/10/17 10:17:28;;;;;;;6.13;2.97;;;;;;;;;;5128316;27;20022;-73
2021/10/17 10:19:58;;;;;;;4.82;2.78;;;;;;;;;;5126402;27;20547;-73
2021/10/17 10:22:25;;;;;;;6.32;2.78;;;;;;;;;;5142702;27;20033;-73
2021/10/17 10:24:52;;;;;;;4.25;2.72;;;;;;;;;;5148131;27;20053;-73
2021/10/17 10:27:19;;;;;;;4.53;2.85;;;;;;;;;;5148032;27;20086;-73
2021/10/17 10:29:45;;;;;;;3.45;2.53;;;;;;;;;;5145166;27;20385;-73
2021/10/17 10:32:21;;;;;;;5.68;2.95;;;;;;;;;;5147713;27;20081;-73
2021/10/17 10:34:51;;;;;;;4.50;3.08;;;;;;;;;;5147272;27;20034;-73
2021/10/17 10:37:17;;;;;;;4.25;2.83;;;;;;;;;;5145608;27;20026;-73
2021/10/17 10:40:10;;;;;;;3.95;3.17;;;;;;;;;;5147603;27;20027;-73
2021/10/17 10:42:39;;;;;;;4.72;2.65;;;;;;;;;;5144699;27;20042;-73
2021/10/17 10:45:24;;;;;;;4.97;3.00;;;;;;;;;;5147490;27;20030;-73
2021/10/17 10:48:09;;;;;;;3.17;2.72;;;;;;;;;;5134676;27;20478;-73
2021/10/17 10:50:36;;;;;;;4.35;3.25;;;;;;;;;;5147824;27;20019;-73
2021/10/17 10:53:02;;;;;;;4.95;2.88;;;;;;;;;;5148001;27;20026;-73
2021/10/17 10:55:45;;;;;;;3.95;2.97;;;;;;;;;;5147836;27;20075;-73
2021/10/17 10:58:24;;;;;;;4.45;3.47;;;;;;;;;;5145645;27;20031;-73
2021/10/17 11:00:51;;;;;;;4.20;3.05;;;;;;;;;;5146829;27;20767;-73
2021/10/17 11:03:18;;;;;;;5.93;3.50;;;;;;;;;;5147622;27;20022;-73
2021/10/17 11:06:03;;;;;;;3.55;3.10;;;;;;;;;;5146228;27;20106;-73
2021/10/17 11:08:29;;;;;;;8.15;3.50;;;;;;;;;;5146707;27;20471;-73
2021/10/17 11:10:56;;;;;;;6.63;3.20;;;;;;;;;;5146583;27;20025;-73
2021/10/17 11:13:29;;;;;;;6.60;3.17;;;;;;;;;;5146693;27;20078;-73
2021/10/17 11:15:55;;;;;;;7.15;3.17;;;;;;;;;;5146070;27;20050;-73
2021/10/17 11:18:28;;;;;;;5.43;3.35;;;;;;;;;;5147683;27;20066;-73
2021/10/17 11:20:54;;;;;;;5.78;3.13;;;;;;;;;;5147230;27;20029;-73
2021/10/17 11:23:25;;;;;;;6.25;3.45;;;;;;;;;;5146325;27;20030;-73
2021/10/17 11:26:01;;;;;;;6.22;3.38;;;;;;;;;;5147385;27;20498;-73
2021/10/17 11:28:28;;;;;;;4.65;2.90;;;;;;;;;;5145421;27;20025;-73
2021/10/17 11:31:01;;;;;;;4.90;3.20;;;;;;;;;;5146909;27;20023;-73
2021/10/17 11:33:28;;;;;;;6.80;3.78;;;;;;;;;;5147134;27;20049;-73
2021/10/17 11:35:56;;;;;;;4.68;3.17;;;;;;;;;;5146797;27;20471;-73
2021/10/17 11:38:22;;;;;;;5.00;3.75;;;;;;;;;;5145404;27;20423;-73
2021/10/17 11:40:48;;;;;;;6.05;3.97;;;;;;;;;;5147038;27;20023;-73
2021/10/17 11:43:15;;;;;;;4.88;3.22;;;;;;;;;;5147142;27;20470;-73
2021/10/17 11:45:42;;;;;;;4.80;3.80;;;;;;;;;;5147053;27;20030;-73
2021/10/17 11:48:10;;;;;;;4.20;3.42;;;;;;;;;;5147272;27;20071;-73
2021/10/17 11:50:37;;;;;;;4.85;3.67;;;;;;;;;;5145239;27;20023;-73
2021/10/17 11:53:08;;;;;;;5.13;3.10;;;;;;;;;;5147002;27;20111;-73
2021/10/17 11:55:47;;;;;;;4.35;3.25;;;;;;;;;;5146706;27;20033;-73
2021/10/17 11:58:14;;;;;;;12.80;3.97;;;;;;;;;;5146754;27;20047;-73
2021/10/17 12:00:41;;;;;;;5.68;3.65;;;;;;;;;;5146607;27;20082;-73
2021/10/17 12:03:07;;;;;;;5.57;3.50;;;;;;;;;;5146912;27;20248;-73
2021/10/17 12:05:33;;;;;;;5.28;3.55;;;;;;;;;;5145162;27;20034;-73
2021/10/17 12:08:00;;;;;;;4.82;3.00;;;;;;;;;;5146522;27;20030;-73
2021/10/17 12:10:27;;;;;;;5.63;3.55;;;;;;;;;;5146385;27;20711;-73
2021/10/17 12:12:57;;;;;;;4.10;3.40;;;;;;;;;;5146501;27;20022;-73
2021/10/17 12:15:24;;;;;;;6.60;3.42;;;;;;;;;;5144691;27;20422;-73
2021/10/17 12:18:16;;;;;;;4.38;3.20;;;;;;;;;;5146452;27;20044;-73
2021/10/17 12:20:43;;;;;;;5.22;3.53;;;;;;;;;;5142393;27;20049;-73
2021/10/17 12:23:09;;;;;;;4.70;2.95;;;;;;;;;;5145909;27;20057;-73
2021/10/17 12:25:35;;;;;;;6.03;3.63;;;;;;;;;;5146365;27;20098;-73
2021/10/17 12:28:01;;;;;;;5.07;3.47;;;;;;;;;;5144929;27;20026;-72
2021/10/17 12:30:37;;;;;;;6.07;3.60;;;;;;;;;;5146024;27;20025;-73
2021/10/17 12:33:10;;;;;;;5.53;3.67;;;;;;;;;;5146157;27;20596;-73
2021/10/17 12:35:37;;;;;;;4.90;3.05;;;;;;;;;;5146171;27;20070;-73
2021/10/17 12:38:05;;;;;;;4.50;3.38;;;;;;;;;;5146466;27;20178;-73
2021/10/17 12:40:32;;;;;;;5.75;3.63;;;;;;;;;;5144362;27;20023;-73
2021/10/17 12:43:02;;;;;;;5.20;3.85;;;;;;;;;;5146409;27;20026;-73
2021/10/17 12:45:29;;;;;;;6.82;3.78;;;;;;;;;;5145941;27;20023;-73
2021/10/17 12:47:56;;;;;;;5.28;3.67;;;;;;;;;;5146075;27;20347;-73
2021/10/17 12:50:25;;;;;;;4.90;3.38;;;;;;;;;;5144952;27;20379;-73
2021/10/17 12:52:55;;;;;;;8.88;3.63;;;;;;;;;;5146376;27;20025;-73
2021/10/17 12:55:21;;;;;;;8.45;3.22;;;;;;;;;;5145910;27;20382;-73
2021/10/17 12:58:01;;;;;;;5.00;3.55;;;;;;;;;;5142632;27;20019;-73
2021/10/17 13:00:27;;;;;;;4.78;3.28;;;;;;;;;;5145548;27;20031;-73
2021/10/17 13:02:53;;;;;;;5.32;3.55;;;;;;;;;;5145765;27;20038;-73
2021/10/17 13:05:20;;;;;;;5.97;3.35;;;;;;;;;;5145901;27;20029;-73
2021/10/17 13:07:46;;;;;;;6.22;3.28;;;;;;;;;;5145743;27;20015;-73
2021/10/17 13:10:16;;;;;;;5.90;3.83;;;;;;;;;;5145614;27;20110;-73
2021/10/17 13:12:42;;;;;;;6.78;4.05;;;;;;;;;;5143853;27;20023;-72
2021/10/17 13:15:09;;;;;;;7.07;3.75;;;;;;;;;;5145737;27;20358;-73
2021/10/17 13:17:36;;;;;;;5.10;3.42;;;;;;;;;;5145014;27;20023;-73
2021/10/17 13:20:04;;;;;;;6.50;3.55;;;;;;;;;;5145612;27;20096;-73
2021/10/17 13:22:30;;;;;;;7.18;3.88;;;;;;;;;;5145654;27;20026;-73
2021/10/17 13:24:56;;;;;;;6.68;3.90;;;;;;;;;;5146068;27;20058;-73
2021/10/17 13:27:23;;;;;;;6.70;3.58;;;;;;;;;;5143999;27;20538;-73
2021/10/17 13:29:50;;;;;;;4.85;3.40;;;;;;;;;;5145668;27;20022;-73
2021/10/17 13:32:17;;;;;;;6.32;3.65;;;;;;;;;;5145607;27;20584;-73
2021/10/17 13:34:44;;;;;;;4.10;3.60;;;;;;;;;;5149738;27;20547;-73
2021/10/17 13:37:10;;;;;;;6.07;3.22;;;;;;;;;;5147955;27;20364;-72
2021/10/17 13:39:37;;;;;;;7.72;3.53;;;;;;;;;;5149482;27;20478;-73
2021/10/17 13:42:04;;;;;;;7.47;3.40;;;;;;;;;;5149221;27;20034;-73
2021/10/17 13:44:30;;;;;;;5.82;3.58;;;;;;;;;;5148040;27;20533;-73
2021/10/17 13:46:56;;;;;;;5.25;3.47;;;;;;;;;;5149699;27;20098;-73
2021/10/17 13:49:22;;;;;;;4.95;3.33;;;;;;;;;;5149229;27;20061;-73
2021/10/17 13:51:48;;;;;;;6.15;3.72;;;;;;;;;;5149372;27;20051;-73
2021/10/17 13:54:15;;;;;;;7.72;3.90;;;;;;;;;;5147973;27;20868;-73
2021/10/17 13:56:42;;;;;;;5.95;4.05;;;;;;;;;;5149568;27;20096;-73
2021/10/17 13:59:08;;;;;;;7.03;3.63;;;;;;;;;;5149141;27;20072;-73
2021/10/17 14:01:34;;;;;;;7.93;4.00;;;;;;;;;;5149161;27;20034;-73
2021/10/17 14:04:00;;;;;;;8.40;3.38;;;;;;;;;;5148786;27;20034;-73
2021/10/17 14:06:26;;;;;;;8.77;4.78;;;;;;;;;;5147892;27;20031;-73
2021/10/17 14:08:53;;;;;;;4.38;3.10;;;;;;;;;;5148789;27;20018;-73
2021/10/17 14:11:19;;;;;;;5.22;3.42;;;;;;;;;;5148870;27;20055;-73
2021/10/17 14:13:45;;;;;;;5.25;3.60;;;;;;;;;;5148511;27;20023;-73
2021/10/17 14:16:11;;;;;;;8.45;3.45;;;;;;;;;;5147738;27;20027;-72
2021/10/17 14:18:39;;;;;;;7.95;3.70;;;;;;;;;;5148903;27;20171;-73
2021/10/17 14:21:05;;;;;;;6.82;3.17;;;;;;;;;;5148703;27;20027;-73
2021/10/17 14:23:31;;;;;;;5.30;2.78;;;;;;;;;;5148648;27;20565;-73
2021/10/17 14:25:57;;;;;;;8.07;2.80;;;;;;;;;;5146320;27;20501;-72
2021/10/17 14:28:24;;;;;;;11.05;3.08;;;;;;;;;;5146705;27;20029;-73
2021/10/17 14:30:50;;;;;;;22.50;3.60;;;;;;;;;;5143853;27;20030;-73
2021/10/17 14:33:16;;;;;;;9.30;3.05;;;;;;;;;;5136675;27;20738;-73
2021/10/17 14:35:42;;;;;;;9.07;3.65;;;;;;;;;;5147298;27;20045;-73
2021/10/17 14:38:08;;;;;;;10.60;3.33;;;;;;;;;;5147769;27;20111;-72
2021/10/17 14:40:34;;;;;;;5.88;2.80;;;;;;;;;;5144738;27;20029;-73
2021/10/17 14:43:01;;;;;;;5.28;3.38;;;;;;;;;;5147147;27;20418;-73